Etusivu
METAR-TAF:

METAR-TAF

Lentoasemat :

Arnhem, Alankomaat

Leveyspiiri: 52-04N, Pituuspiiri: 005-53E, korkeus merenpinnasta: 48 m

Tämänhetkinen sää

Tämä raportti tehtiin 35 minuuttia sitten, kello 03.55 UTC
Tuuli 1 kn eri suunnista
Lämpötila -4°C
Kosteus 93%
Ilmanpaine 1025 hPa
Näkyvyys 10 km tai enemmän

METAR: EHDL 190355Z AUTO VRB01KT 9999 NCD M04/M05 Q1025 BLU

Aika: 05:30 (04:30 UTC)


TAF: puuttuu

Säähavainnot ja -ennusteet yli 4000 lentoasemalta (METAR- ja TAF-raportit).

Käytössä olevat sääasemat on merkitty karttaan keltaisilla ja punaisilla pisteillä.

Aseta hiiri pisteen päälle nähdäksesi sääaseman nimen.

Klikkaa sitten nähdäksesi säähavainnot ja -ennusteet.

Kartan vaihtaminen: klikkaa mustalla rastilla varustettuja vihreitä pisteitä, niin voit zoomata sisään; viivalla varustettua vihreää pistettä, niin voit zoomata ulos tai vihreitä nuolia, niin pääset viereisille kartoille.


METAR-TAF: